Time;durP1;ratioP1;P1;durP2;ratioP2;P2;SDS_P1;SDS_P2;PMS_P1;PMS_P2;Temp;Humidity;BMP_temperature;BMP_pressure;BME280_temperature;BME280_humidity;BME280_pressure;Samples;Min_cycle;Max_cycle;Signal;HPM_P1;HPM_P2
2024/01/27 00:01:05;;;;;;;0.43;0.43;;;;;;;0.97;100.00;103334.03;5092001;28;20024;-57
2024/01/27 00:03:30;;;;;;;0.40;0.40;;;;;;;0.92;100.00;103340.25;5092514;28;20353;-57
2024/01/27 00:05:56;;;;;;;0.50;0.50;;;;;;;0.90;100.00;103334.97;5092738;28;20085;-57
2024/01/27 00:08:21;;;;;;;0.50;0.50;;;;;;;0.87;100.00;103338.84;5091807;28;20032;-57
2024/01/27 00:10:47;;;;;;;0.40;0.40;;;;;;;0.89;100.00;103338.25;5092765;28;20028;-57
2024/01/27 00:13:13;;;;;;;0.50;0.50;;;;;;;0.85;100.00;103336.09;5092387;28;20467;-57
2024/01/27 00:15:38;;;;;;;0.40;0.40;;;;;;;0.89;100.00;103332.25;5092030;28;20020;-57
2024/01/27 00:18:03;;;;;;;0.50;0.50;;;;;;;0.81;100.00;103333.97;5092713;28;20079;-57
2024/01/27 00:20:29;;;;;;;0.40;0.40;;;;;;;0.82;100.00;103333.25;5092278;28;20064;-57
2024/01/27 00:22:54;;;;;;;0.50;0.50;;;;;;;0.76;100.00;103322.41;5091357;28;20511;-57
2024/01/27 00:25:19;;;;;;;0.43;0.43;;;;;;;0.75;100.00;103329.13;5091086;28;20027;-57
2024/01/27 00:27:44;;;;;;;0.50;0.50;;;;;;;0.74;100.00;103322.25;5093310;28;20117;-57
2024/01/27 00:30:11;;;;;;;0.50;0.50;;;;;;;0.70;100.00;103334.41;5095745;28;20076;-57
2024/01/27 00:32:37;;;;;;;0.45;0.45;;;;;;;0.70;100.00;103329.34;5096784;28;20028;-57
2024/01/27 00:35:02;;;;;;;0.40;0.40;;;;;;;0.62;100.00;103331.03;5096504;28;20081;-58
2024/01/27 00:37:28;;;;;;;0.50;0.50;;;;;;;0.61;100.00;103330.16;5095405;28;20033;-58
2024/01/27 00:39:53;;;;;;;0.50;0.50;;;;;;;0.59;100.00;103339.22;5096717;28;20491;-57
2024/01/27 00:42:23;;;;;;;0.40;0.40;;;;;;;0.57;100.00;103348.31;5096204;28;20032;-57
2024/01/27 00:44:49;;;;;;;0.40;0.40;;;;;;;0.53;100.00;103348.72;5095592;28;20051;-57
2024/01/27 00:47:14;;;;;;;0.47;0.47;;;;;;;0.57;100.00;103348.31;5095476;28;20028;-57
2024/01/27 00:49:39;;;;;;;0.40;0.40;;;;;;;0.56;100.00;103343.09;5096038;28;20042;-57
2024/01/27 00:52:05;;;;;;;0.50;0.50;;;;;;;0.53;100.00;103345.25;5095763;28;20047;-57
2024/01/27 00:54:30;;;;;;;0.50;0.50;;;;;;;0.51;100.00;103355.25;5096040;28;20020;-57
2024/01/27 00:56:55;;;;;;;0.40;0.40;;;;;;;0.49;100.00;103344.00;5095796;28;20068;-57
2024/01/27 00:59:21;;;;;;;0.50;0.50;;;;;;;0.56;100.00;103349.03;5095408;28;20104;-57
2024/01/27 01:01:46;;;;;;;0.50;0.50;;;;;;;0.56;100.00;103351.59;5095605;28;20028;-57
2024/01/27 01:04:11;;;;;;;0.43;0.43;;;;;;;0.56;100.00;103349.03;5095417;28;20032;-57
2024/01/27 01:06:39;;;;;;;0.40;0.40;;;;;;;0.54;100.00;103344.53;5095442;28;20043;-57
2024/01/27 01:09:04;;;;;;;0.50;0.50;;;;;;;0.50;100.00;103345.81;5096115;28;20020;-57
2024/01/27 01:11:30;;;;;;;0.40;0.40;;;;;;;0.50;100.00;103345.81;5094950;28;20074;-57
2024/01/27 01:13:55;;;;;;;0.50;0.50;;;;;;;0.51;100.00;103347.63;5095995;28;20032;-57
2024/01/27 01:16:20;;;;;;;0.50;0.50;;;;;;;0.54;100.00;103347.06;5095379;28;20024;-57
2024/01/27 01:18:46;;;;;;;0.50;0.50;;;;;;;0.53;100.00;103356.34;5094646;28;20078;-57
2024/01/27 01:21:11;;;;;;;0.50;0.50;;;;;;;0.52;100.00;103351.97;5095175;28;20040;-57
2024/01/27 01:23:36;;;;;;;0.43;0.43;;;;;;;0.51;100.00;103357.78;5095416;28;20013;-57
2024/01/27 01:26:02;;;;;;;0.50;0.50;;;;;;;0.50;100.00;103355.97;5094804;28;20097;-57
2024/01/27 01:28:28;;;;;;;0.50;0.50;;;;;;;0.46;100.00;103357.25;5093942;28;20028;-57
2024/01/27 01:30:53;;;;;;;0.40;0.40;;;;;;;0.49;100.00;103341.47;5095153;28;20031;-57
2024/01/27 01:33:19;;;;;;;0.50;0.50;;;;;;;0.47;100.00;103353.09;5094211;28;20107;-57
2024/01/27 01:35:44;;;;;;;0.50;0.50;;;;;;;0.45;100.00;103346.94;5095333;28;20456;-57
2024/01/27 01:38:09;;;;;;;0.50;0.50;;;;;;;0.41;100.00;103355.84;5095254;28;20035;-57
2024/01/27 01:40:34;;;;;;;0.50;0.50;;;;;;;0.42;100.00;103349.16;5093564;28;20046;-57
2024/01/27 01:43:00;;;;;;;0.43;0.43;;;;;;;0.45;100.00;103352.03;5095201;28;20035;-57
2024/01/27 01:45:25;;;;;;;0.40;0.40;;;;;;;0.42;100.00;103344.09;5094805;28;20047;-57
2024/01/27 01:47:50;;;;;;;0.50;0.50;;;;;;;0.40;100.00;103351.53;5094482;28;20495;-57
2024/01/27 01:50:17;;;;;;;0.45;0.45;;;;;;;0.32;100.00;103363.38;5094754;28;20107;-57
2024/01/27 01:52:43;;;;;;;0.47;0.47;;;;;;;0.37;100.00;103362.97;5094965;28;20555;-57
2024/01/27 01:55:08;;;;;;;0.50;0.50;;;;;;;0.36;100.00;103361.16;5094423;28;20111;-57
2024/01/27 01:57:33;;;;;;;0.50;0.50;;;;;;;0.32;100.00;103355.75;5094655;28;20475;-57
2024/01/27 01:59:59;;;;;;;0.40;0.40;;;;;;;0.36;100.00;103362.03;5094840;28;20024;-57
2024/01/27 02:02:24;;;;;;;0.50;0.50;;;;;;;0.33;100.00;103357.53;5094075;28;20020;-57
2024/01/27 02:04:49;;;;;;;0.50;0.50;;;;;;;0.30;100.00;103364.81;5094913;28;20111;-57
2024/01/27 02:07:15;;;;;;;0.50;0.50;;;;;;;0.37;100.00;103362.97;5094190;28;20016;-57
2024/01/27 02:09:40;;;;;;;0.50;0.50;;;;;;;0.38;100.00;103354.63;5094269;28;20380;-57
2024/01/27 02:12:06;;;;;;;0.45;0.45;;;;;;;0.36;100.00;103362.03;5094836;28;20081;-57
2024/01/27 02:14:32;;;;;;;0.43;0.43;;;;;;;0.28;100.00;103362.84;5094153;28;20455;-57
2024/01/27 02:16:57;;;;;;;0.50;0.50;;;;;;;0.32;100.00;103367.50;5094027;28;20028;-57
2024/01/27 02:19:23;;;;;;;0.47;0.47;;;;;;;0.30;100.00;103367.34;5094189;28;20054;-57
2024/01/27 02:21:49;;;;;;;0.50;0.50;;;;;;;0.32;100.00;103368.44;5094005;28;20028;-57
2024/01/27 02:24:14;;;;;;;0.38;0.38;;;;;;;0.32;100.00;103370.97;5094384;28;20024;-57
2024/01/27 02:26:40;;;;;;;0.50;0.50;;;;;;;0.29;100.00;103373.16;5094692;28;20024;-57
2024/01/27 02:29:05;;;;;;;0.50;0.50;;;;;;;0.33;100.00;103365.13;5093395;28;20040;-57
2024/01/27 02:31:31;;;;;;;0.50;0.50;;;;;;;0.31;100.00;103361.53;5093980;28;20020;-57
2024/01/27 02:33:56;;;;;;;0.50;0.50;;;;;;;0.30;100.00;103377.50;5093760;28;20496;-57
2024/01/27 02:36:21;;;;;;;0.50;0.50;;;;;;;0.30;100.00;103372.41;5093262;28;20529;-57
2024/01/27 02:38:46;;;;;;;0.40;0.40;;;;;;;0.30;100.00;103372.41;5094332;28;20031;-57
2024/01/27 02:41:12;;;;;;;0.50;0.50;;;;;;;0.28;100.00;103378.94;5093859;28;20521;-57
2024/01/27 02:43:37;;;;;;;0.50;0.50;;;;;;;0.21;100.00;103373.94;5093465;28;20107;-57
2024/01/27 02:46:09;;;;;;;0.40;0.40;;;;;;;0.22;100.00;103375.75;5094106;28;20384;-57
2024/01/27 02:48:34;;;;;;;0.40;0.40;;;;;;;0.21;100.00;103375.53;5094005;28;20054;-57
2024/01/27 02:51:02;;;;;;;0.40;0.40;;;;;;;0.17;100.00;103376.88;5093287;28;20012;-57
2024/01/27 02:53:27;;;;;;;0.50;0.50;;;;;;;0.20;100.00;103364.50;5093832;28;20052;-57
2024/01/27 02:55:53;;;;;;;0.40;0.40;;;;;;;0.16;100.00;103365.78;5093972;28;20066;-57
2024/01/27 02:58:18;;;;;;;0.50;0.50;;;;;;;0.12;100.00;103365.28;5092849;28;20383;-57
2024/01/27 03:00:43;;;;;;;0.50;0.50;;;;;;;0.12;100.00;103360.22;5093745;28;20099;-57
2024/01/27 03:03:08;;;;;;;0.40;0.40;;;;;;;0.07;100.00;103362.22;5093498;28;20059;-57
2024/01/27 03:05:34;;;;;;;0.57;0.57;;;;;;;0.09;100.00;103370.94;5092298;28;20387;-57
2024/01/27 03:08:00;;;;;;;0.40;0.40;;;;;;;0.08;100.00;103369.13;5093865;28;20020;-57
2024/01/27 03:10:25;;;;;;;0.50;0.50;;;;;;;0.11;100.00;103368.56;5093314;28;20483;-57
2024/01/27 03:12:50;;;;;;;0.60;0.60;;;;;;;0.08;100.00;103378.34;5093240;28;20436;-57
2024/01/27 03:15:15;;;;;;;0.50;0.50;;;;;;;0.05;100.00;103378.00;5093377;28;20024;-57
2024/01/27 03:17:41;;;;;;;0.50;0.50;;;;;;;0.03;100.00;103369.31;5093212;28;20126;-57
2024/01/27 03:20:08;;;;;;;0.60;0.60;;;;;;;0.04;100.00;103381.25;5092847;28;20452;-57
2024/01/27 03:22:33;;;;;;;0.50;0.50;;;;;;;0.05;100.00;103378.88;5093104;28;20471;-57
2024/01/27 03:24:59;;;;;;;0.47;0.47;;;;;;;0.02;100.00;103372.59;5092723;28;20052;-57
2024/01/27 03:27:24;;;;;;;0.50;0.50;;;;;;;-0.02;100.00;103377.31;5093130;28;20028;-57
2024/01/27 03:29:49;;;;;;;0.60;0.60;;;;;;;-0.03;100.00;103378.06;5093319;28;20036;-58
2024/01/27 03:32:15;;;;;;;0.50;0.50;;;;;;;-0.05;100.00;103371.91;5092205;28;20115;-57
2024/01/27 03:34:46;;;;;;;0.50;0.50;;;;;;;-0.08;100.00;103384.25;5092472;28;20068;-58
2024/01/27 03:37:11;;;;;;;0.50;0.50;;;;;;;-0.07;100.00;103378.41;5092497;28;20024;-58
2024/01/27 03:39:36;;;;;;;0.50;0.50;;;;;;;-0.11;100.00;103371.19;5092381;28;20549;-58
2024/01/27 03:42:02;;;;;;;0.50;0.50;;;;;;;-0.13;100.00;103365.06;5092877;28;20475;-57
2024/01/27 03:44:27;;;;;;;0.45;0.45;;;;;;;-0.11;100.00;103371.19;5092016;28;20055;-57
2024/01/27 03:46:52;;;;;;;0.50;0.50;;;;;;;-0.11;100.00;103370.31;5092276;28;20040;-57
2024/01/27 03:49:18;;;;;;;0.55;0.55;;;;;;;-0.12;100.00;103373.56;5092625;28;20451;-57
2024/01/27 03:51:43;;;;;;;0.60;0.60;;;;;;;-0.12;100.00;103371.91;5093131;28;20045;-57
2024/01/27 03:54:08;;;;;;;0.40;0.40;;;;;;;-0.10;100.00;103367.03;5092145;28;20024;-57
2024/01/27 03:56:33;;;;;;;0.52;0.52;;;;;;;-0.12;100.00;103373.56;5092730;28;20136;-57
2024/01/27 03:58:59;;;;;;;0.50;0.50;;;;;;;-0.13;100.00;103375.22;5093197;28;20020;-57
2024/01/27 04:01:24;;;;;;;0.60;0.60;;;;;;;-0.13;100.00;103382.81;5091709;28;20464;-57
2024/01/27 04:03:49;;;;;;;0.50;0.50;;;;;;;-0.11;100.00;103378.81;5097597;28;20090;-57
2024/01/27 04:06:15;;;;;;;0.50;0.50;;;;;;;-0.12;100.00;103382.06;5099393;28;20035;-57
2024/01/27 04:08:43;;;;;;;0.50;0.50;;;;;;;-0.11;100.00;103390.59;5099415;28;20394;-57
2024/01/27 04:11:09;;;;;;;0.50;0.50;;;;;;;-0.12;100.00;103382.06;5099684;28;20490;-57
2024/01/27 04:13:36;;;;;;;0.50;0.50;;;;;;;-0.07;100.00;103388.56;5099419;28;20082;-57
2024/01/27 04:16:01;;;;;;;0.57;0.57;;;;;;;-0.08;100.00;103381.69;5098946;28;20059;-57
2024/01/27 04:18:26;;;;;;;0.60;0.60;;;;;;;-0.08;100.00;103384.25;5099330;28;20059;-57
2024/01/27 04:20:52;;;;;;;0.52;0.52;;;;;;;-0.09;100.00;103389.09;5099460;28;20035;-57
2024/01/27 04:23:17;;;;;;;0.50;0.50;;;;;;;-0.08;100.00;103389.31;5098592;28;20047;-57
2024/01/27 04:25:43;;;;;;;0.50;0.50;;;;;;;-0.15;100.00;103384.25;5099538;28;20027;-57
2024/01/27 04:28:10;;;;;;;0.50;0.50;;;;;;;-0.16;100.00;103382.44;5099247;28;20032;-57
2024/01/27 04:30:36;;;;;;;0.60;0.60;;;;;;;-0.21;100.00;103374.34;5099086;28;20031;-57
2024/01/27 04:33:03;;;;;;;0.50;0.50;;;;;;;-0.21;100.00;103378.47;5099273;28;20020;-57
2024/01/27 04:35:29;;;;;;;;;;;;;;;-0.13;100.00;103382.81;5098699;28;20853;-57
2024/01/27 04:37:54;;;;;;;0.50;0.50;;;;;;;-0.23;100.00;103379.97;5099462;28;19912;-57
2024/01/27 04:40:19;;;;;;;0.50;0.50;;;;;;;-0.24;100.00;103385.75;5099092;28;20274;-57
2024/01/27 04:42:45;;;;;;;0.60;0.60;;;;;;;-0.23;100.00;103387.56;5098601;28;20120;-57
2024/01/27 04:45:14;;;;;;;0.50;0.50;;;;;;;-0.27;100.00;103392.97;5098752;28;20048;-57
2024/01/27 04:47:39;;;;;;;0.40;0.40;;;;;;;-0.28;100.00;103387.03;5099403;28;20054;-57
2024/01/27 04:50:05;;;;;;;0.60;0.60;;;;;;;-0.32;100.00;103395.00;5098491;28;20428;-57
2024/01/27 04:52:30;;;;;;;0.60;0.60;;;;;;;-0.39;100.00;103403.53;5098639;28;20073;-57
2024/01/27 04:54:58;;;;;;;0.60;0.60;;;;;;;-0.38;100.00;103390.13;5099051;28;20551;-57
2024/01/27 04:57:23;;;;;;;0.47;0.47;;;;;;;-0.42;100.00;103398.09;5098154;28;20055;-57
2024/01/27 04:59:48;;;;;;;0.52;0.52;;;;;;;-0.44;100.00;103397.03;5099131;28;20062;-57
2024/01/27 05:02:14;;;;;;;0.50;0.50;;;;;;;-0.43;100.00;103390.31;5098779;28;20028;-57
2024/01/27 05:04:39;;;;;;;0.60;0.60;;;;;;;-0.50;100.00;103399.75;5098392;28;20054;-57
2024/01/27 05:07:05;;;;;;;0.50;0.50;;;;;;;-0.49;100.00;103398.13;5098964;28;20028;-57
2024/01/27 05:09:30;;;;;;;0.60;0.60;;;;;;;-0.52;100.00;103386.03;5098606;28;20024;-57
2024/01/27 05:11:55;;;;;;;0.45;0.45;;;;;;;-0.51;100.00;103391.97;5098560;28;20038;-57
2024/01/27 05:14:21;;;;;;;0.50;0.50;;;;;;;-0.47;100.00;103391.59;5096639;28;20104;-57
2024/01/27 05:16:46;;;;;;;0.50;0.50;;;;;;;-0.52;100.00;103395.22;5095453;28;20131;-57
2024/01/27 05:19:11;;;;;;;0.60;0.60;;;;;;;-0.48;100.00;103397.38;5094833;28;20464;-57
2024/01/27 05:21:38;;;;;;;0.50;0.50;;;;;;;-0.54;100.00;103396.69;5095780;28;20031;-57
2024/01/27 05:24:03;;;;;;;0.60;0.60;;;;;;;-0.55;100.00;103402.50;5095461;28;20349;-57
2024/01/27 05:26:29;;;;;;;0.50;0.50;;;;;;;-0.54;100.00;103390.00;5094798;28;20028;-57
2024/01/27 05:28:54;;;;;;;0.50;0.50;;;;;;;-0.58;100.00;103384.38;5094691;28;20024;-57
2024/01/27 05:31:19;;;;;;;0.50;0.50;;;;;;;-0.62;100.00;103387.28;5094066;28;20081;-57
2024/01/27 05:33:45;;;;;;;0.50;0.50;;;;;;;-0.64;100.00;103389.66;5094300;28;20487;-57
2024/01/27 05:36:10;;;;;;;0.50;0.50;;;;;;;-0.61;100.00;103389.09;5095114;28;20028;-57
2024/01/27 05:38:35;;;;;;;0.50;0.50;;;;;;;-0.62;100.00;103382.22;5094478;28;20044;-57
2024/01/27 05:41:01;;;;;;;0.40;0.40;;;;;;;-0.62;100.00;103379.69;5095477;28;20495;-57
2024/01/27 05:43:27;;;;;;;0.50;0.50;;;;;;;-0.62;100.00;103377.16;5094705;28;20024;-57
2024/01/27 05:45:53;;;;;;;0.50;0.50;;;;;;;-0.64;100.00;103365.97;5093335;28;20043;-57
2024/01/27 05:48:18;;;;;;;0.60;0.60;;;;;;;-0.67;100.00;103369.94;5094914;28;20040;-57
2024/01/27 05:50:44;;;;;;;0.50;0.50;;;;;;;-0.65;100.00;103371.75;5095292;28;20024;-57
2024/01/27 05:53:09;;;;;;;0.50;0.50;;;;;;;-0.70;100.00;103369.59;5094443;28;20103;-57
2024/01/27 05:55:34;;;;;;;0.55;0.55;;;;;;;-0.69;100.00;103368.84;5095156;28;20046;-57
2024/01/27 05:58:00;;;;;;;0.50;0.50;;;;;;;-0.72;100.00;103360.91;5094981;28;20547;-57
2024/01/27 06:00:25;;;;;;;0.50;0.50;;;;;;;-0.72;100.00;103365.97;5094099;28;20027;-57
2024/01/27 06:02:51;;;;;;;0.50;0.50;;;;;;;-0.67;100.00;103367.41;5094650;28;20432;-57
2024/01/27 06:05:16;;;;;;;0.50;0.50;;;;;;;-0.74;100.00;103367.41;5094610;28;20024;-57
2024/01/27 06:07:42;;;;;;;0.50;0.50;;;;;;;-0.75;100.00;103373.22;5094057;28;20035;-57
2024/01/27 06:10:10;;;;;;;0.50;0.50;;;;;;;-0.72;100.00;103363.44;5094886;28;20106;-57
2024/01/27 06:12:37;;;;;;;0.50;0.50;;;;;;;-0.77;100.00;103369.59;5094457;28;20342;-57
2024/01/27 06:15:03;;;;;;;0.40;0.40;;;;;;;-0.75;100.00;103363.09;5094151;28;20407;-57
2024/01/27 06:17:28;;;;;;;0.50;0.50;;;;;;;-0.77;100.00;103356.94;5094493;28;20023;-57
2024/01/27 06:19:53;;;;;;;0.60;0.60;;;;;;;-0.77;100.00;103367.06;5094474;28;20035;-57
2024/01/27 06:22:18;;;;;;;0.55;0.55;;;;;;;-0.78;100.00;103364.38;5093860;28;20384;-57
2024/01/27 06:24:44;;;;;;;0.50;0.50;;;;;;;-0.78;100.00;103372.84;5094435;28;20125;-57
2024/01/27 06:27:10;;;;;;;0.50;0.50;;;;;;;-0.80;100.00;103374.31;5093525;28;20027;-57
2024/01/27 06:29:35;;;;;;;0.47;0.47;;;;;;;-0.79;100.00;103368.50;5093953;28;20032;-57
2024/01/27 06:32:00;;;;;;;0.60;0.60;;;;;;;-0.77;100.00;103376.31;5094082;28;20048;-58
2024/01/27 06:34:26;;;;;;;0.70;0.70;;;;;;;-0.81;100.00;103375.03;5093726;28;20043;-58
2024/01/27 06:36:51;;;;;;;0.50;0.50;;;;;;;-0.85;100.00;103372.88;5093609;28;20024;-58
2024/01/27 06:39:16;;;;;;;0.50;0.50;;;;;;;-0.85;100.00;103368.72;5093738;28;20028;-58
2024/01/27 06:41:42;;;;;;;0.50;0.50;;;;;;;-0.88;100.00;103373.44;5093949;28;20531;-58
2024/01/27 06:44:07;;;;;;;0.60;0.60;;;;;;;-0.86;100.00;103381.19;5093354;28;20042;-57
2024/01/27 06:46:33;;;;;;;0.60;0.60;;;;;;;-0.85;100.00;103372.88;5094005;28;20032;-57
2024/01/27 06:48:58;;;;;;;0.52;0.52;;;;;;;-0.88;100.00;103378.50;5093295;28;20020;-57
2024/01/27 06:51:23;;;;;;;0.63;0.63;;;;;;;-0.86;100.00;103381.19;5093799;28;20024;-57
2024/01/27 06:53:49;;;;;;;0.45;0.45;;;;;;;-0.87;100.00;103384.44;5094113;28;20016;-57
2024/01/27 06:56:14;;;;;;;0.40;0.40;;;;;;;-0.90;100.00;103399.28;5092789;28;20666;-57
2024/01/27 06:58:40;;;;;;;0.60;0.60;;;;;;;-0.90;100.00;103399.28;5093602;28;20024;-57
2024/01/27 07:01:06;;;;;;;0.50;0.50;;;;;;;-0.90;100.00;103410.31;5093778;28;20024;-57
2024/01/27 07:03:32;;;;;;;0.50;0.50;;;;;;;-0.92;100.00;103415.91;5092603;28;20031;-57
2024/01/27 07:06:00;;;;;;;0.50;0.50;;;;;;;-0.94;100.00;103412.28;5093165;28;20032;-57
2024/01/27 07:08:26;;;;;;;0.60;0.60;;;;;;;-0.94;100.00;103419.88;5093525;28;20053;-57
2024/01/27 07:10:51;;;;;;;0.60;0.60;;;;;;;-0.91;100.00;103412.66;5092891;28;20380;-57
2024/01/27 07:13:16;;;;;;;0.57;0.57;;;;;;;-0.94;100.00;103422.41;5093238;28;20042;-57
2024/01/27 07:15:42;;;;;;;0.55;0.55;;;;;;;-0.95;100.00;103421.53;5093438;28;20541;-57
2024/01/27 07:18:08;;;;;;;0.50;0.50;;;;;;;-0.92;100.00;103420.97;5092979;28;20020;-57
2024/01/27 07:20:33;;;;;;;0.40;0.40;;;;;;;-0.89;100.00;103418.78;5093220;28;20537;-57
2024/01/27 07:22:59;;;;;;;0.50;0.50;;;;;;;-0.92;100.00;103415.91;5093248;28;20103;-57
2024/01/27 07:25:24;;;;;;;0.50;0.50;;;;;;;-0.90;100.00;103424.59;5092414;28;20032;-57
2024/01/27 07:27:49;;;;;;;0.50;0.50;;;;;;;-0.86;100.00;103426.78;5093292;28;20036;-57
2024/01/27 07:30:15;;;;;;;0.50;0.50;;;;;;;-0.89;100.00;103431.44;5091959;28;20021;-57
2024/01/27 07:32:40;;;;;;;0.50;0.50;;;;;;;-0.87;100.00;103419.88;5092383;28;20111;-57
2024/01/27 07:35:06;;;;;;;0.40;0.40;;;;;;;-0.87;100.00;103424.94;5093133;28;20418;-57
2024/01/27 07:37:31;;;;;;;0.47;0.47;;;;;;;-0.86;100.00;103432.72;5091866;28;20118;-57
2024/01/27 07:39:56;;;;;;;0.60;0.60;;;;;;;-0.81;100.00;103425.69;5092176;28;20471;-57
2024/01/27 07:42:22;;;;;;;0.55;0.55;;;;;;;-0.79;100.00;103428.38;5092773;28;20088;-58
2024/01/27 07:44:47;;;;;;;0.50;0.50;;;;;;;-0.80;100.00;103436.69;5093179;28;20036;-58
2024/01/27 07:47:12;;;;;;;0.60;0.60;;;;;;;-0.79;100.00;103431.81;5092485;28;20028;-57
2024/01/27 07:49:38;;;;;;;0.60;0.60;;;;;;;-0.80;100.00;103437.63;5093215;28;20107;-57
2024/01/27 07:52:03;;;;;;;0.55;0.55;;;;;;;-0.76;100.00;103439.78;5092865;28;20475;-57
2024/01/27 07:54:31;;;;;;;0.60;0.60;;;;;;;-0.73;100.00;103444.31;5092385;28;20383;-57
2024/01/27 07:56:56;;;;;;;0.50;0.50;;;;;;;-0.73;100.00;103444.31;5092539;28;20024;-57
2024/01/27 07:59:21;;;;;;;0.50;0.50;;;;;;;-0.72;100.00;103441.06;5092068;28;20422;-57
2024/01/27 08:01:47;;;;;;;0.60;0.60;;;;;;;-0.68;100.00;103443.22;5093025;28;20104;-57
2024/01/27 08:04:12;;;;;;;0.50;0.50;;;;;;;-0.67;100.00;103440.84;5092664;28;20112;-57
2024/01/27 08:06:49;;;;;;;0.50;0.50;;;;;;;-0.64;100.00;103444.47;5092131;28;20024;-57
2024/01/27 08:09:15;;;;;;;0.50;0.50;;;;;;;-0.61;100.00;103439.75;5092642;28;20119;-57
2024/01/27 08:11:40;;;;;;;0.50;0.50;;;;;;;-0.58;100.00;103438.50;5093006;28;20107;-57
2024/01/27 08:14:06;;;;;;;0.40;0.40;;;;;;;-0.56;100.00;103431.97;5092042;28;20047;-57
2024/01/27 08:16:31;;;;;;;0.50;0.50;;;;;;;-0.53;100.00;103429.81;5092696;28;20056;-57
2024/01/27 08:18:56;;;;;;;0.50;0.50;;;;;;;-0.46;100.00;103428.88;5092596;28;20040;-57
2024/01/27 08:21:22;;;;;;;0.60;0.60;;;;;;;-0.42;100.00;103428.50;5091992;28;20027;-57
2024/01/27 08:23:47;;;;;;;0.50;0.50;;;;;;;-0.39;100.00;103428.88;5092746;28;20093;-57
2024/01/27 08:26:13;;;;;;;0.60;0.60;;;;;;;-0.36;100.00;103429.22;5092052;28;20020;-57
2024/01/27 08:28:38;;;;;;;0.50;0.50;;;;;;;-0.30;100.00;103426.47;5092388;28;20031;-57
2024/01/27 08:31:04;;;;;;;0.60;0.60;;;;;;;-0.25;100.00;103427.03;5092803;28;20024;-57
2024/01/27 08:33:29;;;;;;;0.50;0.50;;;;;;;-0.19;100.00;103417.59;5091170;28;20028;-57
2024/01/27 08:35:55;;;;;;;0.50;0.50;;;;;;;-0.14;100.00;103416.47;5089577;28;20035;-57
2024/01/27 08:38:20;;;;;;;0.57;0.57;;;;;;;-0.11;100.00;103414.28;5089924;28;20031;-57
2024/01/27 08:40:45;;;;;;;0.50;0.50;;;;;;;-0.04;100.00;103426.03;5090241;28;20096;-57
2024/01/27 08:43:11;;;;;;;0.40;0.40;;;;;;;0.01;100.00;103416.41;5090160;28;20028;-57
2024/01/27 08:45:40;;;;;;;0.60;0.60;;;;;;;0.08;100.00;103426.50;5090027;28;20067;-57
2024/01/27 08:48:06;;;;;;;0.50;0.50;;;;;;;0.12;100.00;103433.78;5091739;28;20024;-57
2024/01/27 08:50:32;;;;;;;0.52;0.52;;;;;;;0.23;100.00;103429.91;5094497;28;20016;-57
2024/01/27 08:52:57;;;;;;;0.50;0.50;;;;;;;0.31;100.00;103434.19;5096215;28;20024;-58
2024/01/27 08:55:23;;;;;;;0.50;0.50;;;;;;;0.38;100.00;103445.97;5094013;28;20110;-58
2024/01/27 08:57:49;;;;;;;0.50;0.50;;;;;;;0.46;100.00;103446.06;5094988;28;20024;-57
2024/01/27 09:00:16;;;;;;;0.50;0.50;;;;;;;0.53;100.00;103450.22;5096088;28;20111;-57
2024/01/27 09:02:42;;;;;;;0.40;0.40;;;;;;;0.61;100.00;103451.97;5095419;28;20023;-58
2024/01/27 09:05:07;;;;;;;0.50;0.50;;;;;;;0.63;100.00;103447.06;5095868;28;20028;-57
2024/01/27 09:07:34;;;;;;;0.50;0.50;;;;;;;0.73;100.00;103446.47;5095660;28;20413;-58
2024/01/27 09:09:59;;;;;;;0.40;0.40;;;;;;;0.77;100.00;103448.59;5095170;28;20024;-57
2024/01/27 09:12:24;;;;;;;0.40;0.40;;;;;;;0.80;100.00;103459.09;5095622;28;20040;-57
2024/01/27 09:14:50;;;;;;;0.52;0.52;;;;;;;0.86;100.00;103456.34;5095532;28;20020;-58
2024/01/27 09:17:15;;;;;;;0.50;0.50;;;;;;;0.92;100.00;103457.94;5094499;28;20075;-57
2024/01/27 09:19:40;;;;;;;0.60;0.60;;;;;;;1.00;100.00;103448.63;5093960;28;20024;-58
2024/01/27 09:22:06;;;;;;;0.50;0.50;;;;;;;1.06;100.00;103463.63;5092630;28;20039;-57
2024/01/27 09:24:32;;;;;;;0.50;0.50;;;;;;;1.13;100.00;103461.03;5093978;28;20572;-56
2024/01/27 09:26:57;;;;;;;0.50;0.50;;;;;;;1.20;100.00;103466.06;5093500;28;20036;-58
2024/01/27 09:29:22;;;;;;;0.50;0.50;;;;;;;1.29;100.00;103466.16;5094397;28;20024;-56
2024/01/27 09:31:48;;;;;;;0.50;0.50;;;;;;;1.42;100.00;103465.84;5095009;28;20073;-55
2024/01/27 09:34:13;;;;;;;0.50;0.50;;;;;;;1.55;100.00;103468.09;5095057;28;20024;-55
2024/01/27 09:36:38;;;;;;;0.40;0.40;;;;;;;1.70;100.00;103482.44;5095257;28;20112;-56
2024/01/27 09:39:03;;;;;;;0.45;0.45;;;;;;;1.80;100.00;103486.91;5094759;28;20038;-56
2024/01/27 09:41:32;;;;;;;0.50;0.50;;;;;;;1.92;100.00;103498.38;5095265;28;20108;-56
2024/01/27 09:44:01;;;;;;;0.40;0.40;;;;;;;2.00;100.00;103495.75;5095035;28;20056;-56
2024/01/27 09:46:27;;;;;;;0.40;0.40;;;;;;;2.06;100.00;103498.97;5094261;28;20516;-56
2024/01/27 09:48:53;;;;;;;0.40;0.40;;;;;;;2.14;100.00;103495.59;5095221;28;20028;-56
2024/01/27 09:51:19;;;;;;;0.40;0.40;;;;;;;2.28;100.00;103495.41;5094706;28;20488;-56
2024/01/27 09:53:45;;;;;;;0.40;0.40;;;;;;;2.43;100.00;103497.81;5094538;28;20349;-56
2024/01/27 09:56:17;;;;;;;0.40;0.40;;;;;;;2.56;100.00;103508.53;5094921;28;20031;-57
2024/01/27 09:58:44;;;;;;;0.40;0.40;;;;;;;2.85;100.00;103509.75;5094993;28;20180;-57
2024/01/27 10:01:10;;;;;;;0.40;0.40;;;;;;;3.10;100.00;103516.66;5093529;28;20016;-57
2024/01/27 10:03:38;;;;;;;0.40;0.40;;;;;;;3.34;100.00;103517.34;5095029;28;20028;-57
2024/01/27 10:06:04;;;;;;;;;;;;;;;3.59;100.00;103524.94;5094542;28;20061;-57
2024/01/27 10:08:30;;;;;;;0.40;0.40;;;;;;;3.70;100.00;103518.38;5094708;28;19999;-57
2024/01/27 10:10:56;;;;;;;0.40;0.40;;;;;;;3.86;100.00;103515.72;5094833;28;20439;-56
2024/01/27 10:13:28;;;;;;;0.40;0.40;;;;;;;4.04;100.00;103516.63;5093614;28;20154;-57
2024/01/27 10:16:06;;;;;;;0.40;0.40;;;;;;;4.28;100.00;103513.94;5094865;28;20051;-56
2024/01/27 10:18:33;;;;;;;0.40;0.40;;;;;;;4.40;100.00;103514.28;5093902;28;20039;-57
2024/01/27 10:20:58;;;;;;;0.30;0.30;;;;;;;4.53;100.00;103521.47;5094242;28;20031;-57
2024/01/27 10:23:24;;;;;;;0.30;0.30;;;;;;;4.88;100.00;103524.00;5094181;28;20036;-57
2024/01/27 10:25:50;;;;;;;0.40;0.40;;;;;;;5.22;100.00;103522.06;5094212;28;20044;-57
2024/01/27 10:28:15;;;;;;;0.35;0.35;;;;;;;5.19;100.00;103513.19;5093710;28;20020;-57
2024/01/27 10:30:41;;;;;;;0.40;0.40;;;;;;;5.20;100.00;103508.25;5094385;28;20016;-57
2024/01/27 10:33:10;;;;;;;0.40;0.40;;;;;;;5.25;100.00;103499.38;5093904;28;20056;-56
2024/01/27 10:35:36;;;;;;;0.30;0.30;;;;;;;5.51;100.00;103503.44;5094008;28;20028;-57
2024/01/27 10:38:02;;;;;;;0.40;0.40;;;;;;;5.52;100.00;103514.59;5094091;28;20060;-57
2024/01/27 10:40:27;;;;;;;0.30;0.30;;;;;;;5.58;100.00;103516.06;5093633;28;20034;-57
2024/01/27 10:43:02;;;;;;;0.28;0.28;;;;;;;5.71;100.00;103522.31;5093791;28;20024;-57
2024/01/27 10:45:33;;;;;;;0.40;0.40;;;;;;;5.72;100.00;103524.09;5093294;28;20078;-57
2024/01/27 10:48:01;;;;;;;0.40;0.40;;;;;;;5.85;100.00;103515.88;5093765;28;20403;-57
2024/01/27 10:50:26;;;;;;;0.30;0.30;;;;;;;6.07;100.00;103517.13;5093795;28;20038;-57
2024/01/27 10:52:54;;;;;;;0.32;0.32;;;;;;;6.25;100.00;103520.47;5093901;28;20024;-57
2024/01/27 10:55:20;;;;;;;;;;;;;;;6.58;100.00;103511.47;5093308;28;20066;-57
2024/01/27 10:57:47;;;;;;;0.30;0.30;;;;;;;6.42;100.00;103506.59;5093557;28;19912;-57
2024/01/27 11:00:14;;;;;;;0.32;0.32;;;;;;;6.64;100.00;103490.59;5093206;28;20032;-57
2024/01/27 11:02:40;;;;;;;0.32;0.32;;;;;;;6.84;100.00;103500.03;5093177;28;20024;-57
2024/01/27 11:05:07;;;;;;;0.30;0.30;;;;;;;6.86;100.00;103498.50;5093872;28;20016;-57
2024/01/27 11:07:34;;;;;;;0.30;0.30;;;;;;;6.94;100.00;103490.59;5093201;28;20081;-57
2024/01/27 11:10:00;;;;;;;0.30;0.30;;;;;;;7.02;100.00;103487.00;5093255;28;20054;-57
2024/01/27 11:12:26;;;;;;;0.30;0.30;;;;;;;7.21;100.00;103494.63;5092509;28;20052;-57
2024/01/27 11:14:52;;;;;;;0.22;0.22;;;;;;;7.17;100.00;103488.31;5093334;28;20035;-57